createdAt,value
2018-08-20T00:00:52.137Z,21.33
2018-08-20T00:03:20.359Z,21.30
2018-08-20T00:05:52.604Z,21.39
2018-08-20T00:08:20.841Z,21.37
2018-08-20T00:10:51.863Z,21.30
2018-08-20T00:13:20.089Z,21.05
2018-08-20T00:15:48.316Z,21.15
2018-08-20T00:18:21.869Z,20.97
2018-08-20T00:20:50.066Z,20.92
2018-08-20T00:23:18.289Z,20.98
2018-08-20T00:25:46.509Z,21.05
2018-08-20T00:28:14.716Z,20.75
2018-08-20T00:30:43.494Z,20.86
2018-08-20T00:33:11.841Z,20.87
2018-08-20T00:35:40.105Z,21.01
2018-08-20T00:38:08.329Z,20.97
2018-08-20T00:40:36.549Z,21.04
2018-08-20T00:43:04.828Z,21.19
2018-08-20T00:45:33.024Z,21.07
2018-08-20T00:48:01.249Z,21.14
2018-08-20T00:50:29.445Z,21.09
2018-08-20T00:52:57.648Z,21.15
2018-08-20T00:55:25.845Z,21.17
2018-08-20T00:57:54.077Z,21.07
2018-08-20T01:00:22.301Z,21.18
2018-08-20T01:02:50.533Z,21.09
2018-08-20T01:05:18.769Z,21.17
2018-08-20T01:07:46.973Z,21.11
2018-08-20T01:10:15.215Z,21.03
2018-08-20T01:12:43.463Z,20.92
2018-08-20T01:15:11.685Z,20.88
2018-08-20T01:17:39.889Z,20.83
2018-08-20T01:20:08.197Z,20.90
2018-08-20T01:22:36.410Z,21.02
2018-08-20T01:25:04.710Z,21.08
2018-08-20T01:27:32.930Z,21.11
2018-08-20T01:30:01.177Z,21.07
2018-08-20T01:32:29.385Z,20.95
2018-08-20T01:35:13.216Z,21.11
2018-08-20T01:37:41.869Z,21.09
2018-08-20T01:40:10.084Z,20.92
2018-08-20T01:42:38.304Z,21.05
2018-08-20T01:45:06.565Z,21.13
2018-08-20T01:47:34.805Z,20.98
2018-08-20T01:50:03.053Z,20.97
2018-08-20T01:52:31.289Z,20.90
2018-08-20T01:54:59.495Z,21.10
2018-08-20T01:57:27.781Z,20.95
2018-08-20T01:59:56.090Z,20.92
2018-08-20T02:02:24.309Z,21.04
2018-08-20T02:04:52.537Z,21.12
2018-08-20T02:07:20.757Z,21.14
2018-08-20T02:09:49.063Z,21.12
2018-08-20T02:12:17.301Z,21.14
2018-08-20T02:14:45.544Z,21.15
2018-08-20T02:17:13.742Z,21.26
2018-08-20T02:19:41.941Z,21.24
2018-08-20T02:22:10.165Z,21.23
2018-08-20T02:24:38.389Z,21.26
2018-08-20T02:27:06.617Z,21.33
2018-08-20T02:29:34.825Z,21.34
2018-08-20T02:32:03.045Z,21.27
2018-08-20T02:34:31.241Z,21.27
2018-08-20T02:36:59.460Z,21.31
2018-08-20T02:39:27.671Z,21.19
2018-08-20T02:41:55.886Z,21.29
2018-08-20T02:44:24.129Z,21.25
2018-08-20T02:46:53.785Z,21.23
2018-08-20T02:49:22.037Z,21.23
2018-08-20T02:51:50.853Z,21.29
2018-08-20T02:54:19.113Z,21.19
2018-08-20T02:56:47.333Z,21.23
2018-08-20T02:59:15.977Z,21.34
2018-08-20T03:01:44.177Z,21.25
2018-08-20T03:04:12.401Z,21.32
2018-08-20T03:06:40.643Z,21.25
2018-08-20T03:09:12.511Z,21.30
2018-08-20T03:11:40.734Z,21.25
2018-08-20T03:14:09.020Z,21.30
2018-08-20T03:16:37.800Z,21.12
2018-08-20T03:19:06.592Z,21.11
2018-08-20T03:21:34.811Z,21.19
2018-08-20T03:24:03.128Z,21.19
2018-08-20T03:26:31.460Z,21.20
2018-08-20T03:29:00.265Z,21.16
2018-08-20T03:31:28.518Z,21.21
2018-08-20T03:33:56.729Z,21.26
2018-08-20T03:36:25.009Z,21.29
2018-08-20T03:38:53.205Z,21.33
2018-08-20T03:41:21.434Z,21.43
2018-08-20T03:43:49.760Z,21.44
2018-08-20T03:46:17.997Z,21.42
2018-08-20T03:48:46.229Z,21.44
2018-08-20T03:51:14.500Z,21.44
2018-08-20T03:53:42.705Z,21.51
2018-08-20T03:56:10.937Z,21.43
2018-08-20T03:58:39.150Z,21.37
2018-08-20T04:01:07.421Z,21.44
2018-08-20T04:03:35.657Z,21.53
2018-08-20T04:06:03.925Z,21.48
2018-08-20T04:08:32.133Z,21.53
2018-08-20T04:11:00.397Z,21.56
2018-08-20T04:13:28.629Z,21.43
2018-08-20T04:15:56.842Z,21.46
2018-08-20T04:18:25.057Z,21.45
2018-08-20T04:20:53.266Z,21.52
2018-08-20T04:23:21.517Z,21.52
2018-08-20T04:25:49.749Z,21.57
2018-08-20T04:28:17.977Z,21.56
2018-08-20T04:30:46.259Z,21.52
2018-08-20T04:33:14.433Z,21.56
2018-08-20T04:35:42.647Z,21.51
2018-08-20T04:38:10.865Z,21.59
2018-08-20T04:40:39.094Z,21.47
2018-08-20T04:43:07.477Z,21.51
2018-08-20T04:45:35.677Z,21.48
2018-08-20T04:48:03.913Z,21.50
2018-08-20T04:50:32.316Z,21.59
2018-08-20T04:53:00.926Z,21.47
2018-08-20T04:55:29.152Z,21.60
2018-08-20T04:57:57.364Z,21.38
2018-08-20T05:00:25.616Z,21.23
2018-08-20T05:02:53.820Z,21.20
2018-08-20T05:05:22.033Z,21.41
2018-08-20T05:07:50.245Z,21.40
2018-08-20T05:10:18.485Z,21.14
2018-08-20T05:12:46.698Z,21.13
2018-08-20T05:15:14.943Z,21.22
2018-08-20T05:17:43.173Z,21.22
2018-08-20T05:20:11.418Z,21.29
2018-08-20T05:22:39.746Z,21.12
2018-08-20T05:25:08.193Z,21.23
2018-08-20T05:27:36.449Z,21.23
2018-08-20T05:30:05.141Z,21.29
2018-08-20T05:32:33.362Z,21.22
2018-08-20T05:35:01.569Z,20.98
2018-08-20T05:37:29.841Z,21.09
2018-08-20T05:39:58.061Z,21.16
2018-08-20T05:42:26.281Z,21.16
2018-08-20T05:44:54.510Z,21.16
2018-08-20T05:47:22.701Z,21.16
2018-08-20T05:49:50.915Z,21.28
2018-08-20T05:52:19.149Z,21.34
2018-08-20T05:54:47.353Z,21.50
2018-08-20T05:57:15.577Z,21.43
2018-08-20T05:59:43.785Z,21.54
2018-08-20T06:02:12.021Z,21.64
2018-08-20T06:04:40.238Z,21.70
2018-08-20T06:07:08.493Z,21.68
2018-08-20T06:09:36.698Z,21.77
2018-08-20T06:12:04.937Z,21.86
2018-08-20T06:14:33.140Z,21.80
2018-08-20T06:17:01.341Z,21.95
2018-08-20T06:19:29.554Z,21.90
2018-08-20T06:21:57.782Z,21.91
2018-08-20T06:24:26.009Z,21.84
2018-08-20T06:26:54.269Z,22.06
2018-08-20T06:29:22.494Z,21.82
2018-08-20T06:31:50.750Z,21.97
2018-08-20T06:34:19.041Z,22.12
2018-08-20T06:36:47.253Z,22.17
2018-08-20T06:39:15.494Z,22.17
2018-08-20T06:41:43.732Z,22.24
2018-08-20T06:44:11.906Z,22.37
2018-08-20T06:46:40.165Z,22.48
2018-08-20T06:49:09.201Z,22.42
2018-08-20T06:51:37.649Z,22.65
2018-08-20T06:54:06.119Z,22.66
2018-08-20T06:56:34.329Z,22.66
2018-08-20T06:59:02.565Z,22.69
2018-08-20T07:01:30.849Z,22.75
2018-08-20T07:03:59.334Z,22.69
2018-08-20T07:06:27.619Z,22.66
2018-08-20T07:08:55.780Z,22.79
2018-08-20T07:11:24.049Z,22.87
2018-08-20T07:13:52.305Z,23.06
2018-08-20T07:16:20.525Z,23.06
2018-08-20T07:18:48.757Z,23.11
2018-08-20T07:21:16.989Z,23.05
2018-08-20T07:23:45.260Z,23.04
2018-08-20T07:26:13.458Z,22.77
2018-08-20T07:28:42.765Z,22.55
2018-08-20T07:31:10.967Z,22.30
2018-08-20T07:33:39.210Z,22.52
2018-08-20T07:36:07.466Z,22.66
2018-08-20T07:38:35.693Z,22.66
2018-08-20T07:41:03.936Z,22.63
2018-08-20T07:43:32.142Z,22.56
2018-08-20T07:46:00.986Z,22.71
2018-08-20T07:48:29.231Z,22.68
2018-08-20T07:50:57.510Z,22.84
2018-08-20T07:53:26.786Z,22.74
2018-08-20T07:55:55.081Z,22.63
2018-08-20T07:58:23.374Z,22.58
2018-08-20T08:00:51.677Z,22.76
2018-08-20T08:03:29.237Z,22.76
2018-08-20T08:05:58.678Z,23.00
2018-08-20T08:08:27.106Z,22.95
2018-08-20T08:10:55.444Z,23.15
2018-08-20T08:13:23.729Z,23.20
2018-08-20T08:15:52.029Z,23.19
2018-08-20T08:18:20.285Z,23.29
2018-08-20T08:20:48.523Z,23.28
2018-08-20T08:23:16.789Z,23.19
2018-08-20T08:25:45.045Z,23.12
2018-08-20T08:28:13.289Z,23.09
2018-08-20T08:30:41.907Z,23.03
2018-08-20T08:33:10.169Z,22.98
2018-08-20T08:35:38.401Z,22.92
2018-08-20T08:38:06.870Z,22.85
2018-08-20T08:40:35.000Z,22.77
2018-08-20T08:43:03.246Z,23.06
2018-08-20T08:45:31.445Z,23.20
2018-08-20T08:47:59.674Z,23.19
2018-08-20T08:50:27.921Z,23.09
2018-08-20T08:52:56.150Z,23.18
2018-08-20T08:55:24.397Z,23.32
2018-08-20T08:57:52.681Z,23.28
2018-08-20T09:00:21.540Z,23.19
2018-08-20T09:02:49.786Z,23.47
2018-08-20T09:05:18.044Z,23.58
2018-08-20T09:07:46.318Z,23.49
2018-08-20T09:10:14.549Z,23.42
2018-08-20T09:12:43.860Z,23.49
2018-08-20T09:15:15.049Z,23.58
2018-08-20T09:17:43.506Z,23.64
2018-08-20T09:20:13.866Z,23.79
2018-08-20T09:22:42.141Z,23.81
2018-08-20T09:25:11.724Z,23.64
2018-08-20T09:27:40.245Z,23.56
2018-08-20T09:30:18.633Z,23.56
2018-08-20T09:32:47.554Z,23.87
2018-08-20T09:35:15.790Z,23.87
2018-08-20T09:37:44.005Z,23.65
2018-08-20T09:40:12.802Z,23.84
2018-08-20T09:42:41.717Z,24.17
2018-08-20T09:45:10.250Z,24.26
2018-08-20T09:47:39.450Z,24.14
2018-08-20T09:50:09.357Z,24.22
2018-08-20T09:52:37.594Z,23.90
2018-08-20T09:55:06.206Z,23.95
2018-08-20T09:57:34.445Z,24.01
2018-08-20T10:00:02.774Z,24.17
2018-08-20T10:02:30.989Z,24.15
2018-08-20T10:04:59.521Z,24.37
2018-08-20T10:07:27.729Z,24.54
2018-08-20T10:09:56.021Z,24.65
2018-08-20T10:12:24.278Z,24.68
2018-08-20T10:14:52.605Z,25.04
2018-08-20T10:17:20.824Z,24.88
2018-08-20T10:19:49.025Z,24.72
2018-08-20T10:22:17.249Z,24.57
2018-08-20T10:24:45.495Z,24.65
2018-08-20T10:27:13.682Z,24.46
2018-08-20T10:29:41.939Z,24.30
2018-08-20T10:32:10.250Z,24.49
2018-08-20T10:34:38.409Z,24.50
2018-08-20T10:37:06.634Z,24.54
2018-08-20T10:39:34.866Z,24.61
2018-08-20T10:42:03.101Z,24.39
2018-08-20T10:44:35.465Z,24.12
2018-08-20T10:47:03.789Z,24.07
2018-08-20T10:49:32.005Z,23.88
2018-08-20T10:52:00.249Z,23.84
2018-08-20T10:54:28.540Z,23.67
2018-08-20T10:56:56.781Z,23.68
2018-08-20T10:59:25.001Z,23.50
2018-08-20T11:01:53.251Z,23.48
2018-08-20T11:04:21.470Z,23.61
2018-08-20T11:06:49.669Z,23.54
2018-08-20T11:09:17.897Z,23.56
2018-08-20T11:11:46.105Z,23.68
2018-08-20T11:14:14.412Z,23.86
2018-08-20T11:16:42.585Z,23.77
2018-08-20T11:19:10.817Z,23.79
2018-08-20T11:21:39.033Z,23.95
2018-08-20T11:24:07.296Z,23.93
2018-08-20T11:26:35.523Z,23.80
2018-08-20T11:29:03.853Z,23.82
2018-08-20T11:31:32.118Z,23.97
2018-08-20T11:34:00.373Z,23.97
2018-08-20T11:36:29.146Z,24.07
2018-08-20T11:38:57.362Z,24.00
2018-08-20T11:41:25.622Z,24.03
2018-08-20T11:43:53.845Z,24.08
2018-08-20T11:46:22.053Z,24.11
2018-08-20T11:48:50.289Z,24.14
2018-08-20T11:51:18.517Z,24.14
2018-08-20T11:53:46.763Z,24.01
2018-08-20T11:56:16.075Z,24.03
2018-08-20T11:58:44.292Z,24.24
2018-08-20T12:01:12.531Z,24.45
2018-08-20T12:03:40.725Z,24.13
2018-08-20T12:06:08.966Z,23.93
2018-08-20T12:08:37.157Z,23.95
2018-08-20T12:11:05.381Z,23.99
2018-08-20T12:13:33.593Z,24.18
2018-08-20T12:16:01.809Z,24.07
2018-08-20T12:18:30.006Z,23.91
2018-08-20T12:20:58.253Z,23.99
2018-08-20T12:23:26.501Z,23.87
2018-08-20T12:25:54.727Z,23.81
2018-08-20T12:28:22.942Z,23.94
2018-08-20T12:30:51.212Z,24.10
2018-08-20T12:33:19.392Z,24.19
2018-08-20T12:35:47.597Z,24.20
2018-08-20T12:38:15.833Z,23.99
2018-08-20T12:40:44.061Z,24.21
2018-08-20T12:43:12.289Z,24.18
2018-08-20T12:45:40.515Z,24.31
2018-08-20T12:48:08.809Z,24.23
2018-08-20T12:50:37.043Z,24.27
2018-08-20T12:53:05.277Z,24.18
2018-08-20T12:55:33.529Z,23.85
2018-08-20T12:58:01.769Z,23.71
2018-08-20T13:00:30.035Z,23.81
2018-08-20T13:02:58.227Z,23.70
2018-08-20T13:05:26.489Z,23.92
2018-08-20T13:07:54.737Z,24.01
2018-08-20T13:10:22.979Z,24.16
2018-08-20T13:12:51.197Z,24.22
2018-08-20T13:15:20.484Z,24.08
2018-08-20T13:17:48.698Z,24.14
2018-08-20T13:20:16.906Z,24.37
2018-08-20T13:22:45.169Z,24.45
2018-08-20T13:25:13.389Z,24.53
2018-08-20T13:27:41.638Z,24.72
2018-08-20T13:30:10.445Z,24.90
2018-08-20T13:32:38.754Z,24.99
2018-08-20T13:35:07.562Z,25.10
2018-08-20T13:37:35.794Z,25.18
2018-08-20T13:40:04.241Z,25.24
2018-08-20T13:42:32.514Z,25.14
2018-08-20T13:45:00.969Z,25.34
2018-08-20T13:47:29.162Z,25.34
2018-08-20T13:50:04.283Z,24.99
2018-08-20T13:52:32.484Z,24.97
2018-08-20T13:55:00.698Z,24.95
2018-08-20T13:57:33.074Z,25.08
2018-08-20T14:00:01.349Z,25.06
2018-08-20T14:02:29.617Z,25.05
2018-08-20T14:04:57.833Z,24.81
2018-08-20T14:07:26.076Z,24.72
2018-08-20T14:09:54.327Z,24.65
2018-08-20T14:12:22.585Z,24.96
2018-08-20T14:14:50.814Z,24.76
2018-08-20T14:17:19.073Z,25.00
2018-08-20T14:19:47.310Z,25.32
2018-08-20T14:22:15.521Z,25.00
2018-08-20T14:24:43.753Z,25.20
2018-08-20T14:27:11.995Z,25.35
2018-08-20T14:29:40.249Z,25.40
2018-08-20T14:32:08.469Z,25.28
2018-08-20T14:34:36.691Z,25.22
2018-08-20T14:37:05.334Z,25.40
2018-08-20T14:39:33.545Z,25.21
2018-08-20T14:42:01.784Z,25.41
2018-08-20T14:44:29.989Z,25.17
2018-08-20T14:46:58.198Z,25.21
2018-08-20T14:49:26.418Z,25.26
2018-08-20T14:51:54.654Z,25.32
2018-08-20T14:54:22.885Z,25.29
2018-08-20T14:56:51.057Z,25.15
2018-08-20T14:59:19.285Z,25.21
2018-08-20T15:01:47.534Z,25.42
2018-08-20T15:04:15.748Z,25.50
2018-08-20T15:06:57.825Z,25.43
2018-08-20T15:09:27.391Z,25.66
2018-08-20T15:11:56.133Z,25.62
2018-08-20T15:14:24.350Z,25.70
2018-08-20T15:16:52.681Z,25.43
2018-08-20T15:19:20.893Z,25.59
2018-08-20T15:21:49.420Z,25.66
2018-08-20T15:24:18.729Z,25.46
2018-08-20T15:26:47.965Z,25.43
2018-08-20T15:29:16.655Z,25.41
2018-08-20T15:31:44.862Z,25.48
2018-08-20T15:34:13.077Z,25.39
2018-08-20T15:36:41.606Z,25.42
2018-08-20T15:39:10.221Z,25.52
2018-08-20T15:41:38.437Z,25.50
2018-08-20T15:44:07.929Z,25.50
2018-08-20T15:46:36.125Z,25.46
2018-08-20T15:49:04.910Z,25.55
2018-08-20T15:51:33.113Z,25.61
2018-08-20T15:54:01.329Z,25.60
2018-08-20T15:56:29.577Z,25.61
2018-08-20T15:58:57.877Z,25.53
2018-08-20T16:01:26.089Z,25.56
2018-08-20T16:03:54.641Z,25.49
2018-08-20T16:06:24.745Z,25.44
2018-08-20T16:08:52.993Z,25.56
2018-08-20T16:11:21.242Z,25.46
2018-08-20T16:13:49.461Z,25.49
2018-08-20T16:16:17.682Z,25.25
2018-08-20T16:18:45.905Z,25.46
2018-08-20T16:21:14.105Z,25.29
2018-08-20T16:23:42.317Z,25.44
2018-08-20T16:26:10.537Z,25.48
2018-08-20T16:28:38.803Z,25.48
2018-08-20T16:31:07.061Z,25.47
2018-08-20T16:33:35.269Z,25.56
2018-08-20T16:36:03.529Z,25.60
2018-08-20T16:38:31.761Z,25.57
2018-08-20T16:41:00.019Z,25.36
2018-08-20T16:43:28.278Z,25.35
2018-08-20T16:45:56.497Z,25.35
2018-08-20T16:48:24.725Z,25.39
2018-08-20T16:50:52.970Z,25.47
2018-08-20T16:53:21.205Z,25.43
2018-08-20T16:55:49.461Z,25.37
2018-08-20T16:58:17.678Z,25.21
2018-08-20T17:00:45.937Z,25.25
2018-08-20T17:03:14.201Z,25.33
2018-08-20T17:05:48.526Z,25.40
2018-08-20T17:08:21.878Z,25.23
2018-08-20T17:10:50.134Z,25.24
2018-08-20T17:13:18.389Z,25.02
2018-08-20T17:15:46.621Z,24.94
2018-08-20T17:18:14.865Z,24.87
2018-08-20T17:20:43.113Z,24.88
2018-08-20T17:23:16.025Z,25.03
2018-08-20T17:25:44.334Z,24.91
2018-08-20T17:28:12.602Z,24.83
2018-08-20T17:30:40.849Z,24.78
2018-08-20T17:33:09.174Z,24.78
2018-08-20T17:35:39.674Z,24.90
2018-08-20T17:38:07.921Z,24.85
2018-08-20T17:40:37.250Z,24.76
2018-08-20T17:43:05.921Z,24.70
2018-08-20T17:45:35.143Z,24.46
2018-08-20T17:48:03.411Z,24.42
2018-08-20T17:50:40.657Z,24.32
2018-08-20T17:53:09.013Z,24.28
2018-08-20T17:55:37.253Z,24.25
2018-08-20T17:58:05.526Z,24.17
2018-08-20T18:00:54.966Z,24.31
2018-08-20T18:03:28.330Z,24.07
2018-08-20T18:05:57.834Z,24.17
2018-08-20T18:08:27.197Z,24.18
2018-08-20T18:10:55.466Z,24.03
2018-08-20T18:13:36.553Z,24.05
2018-08-20T18:16:06.561Z,23.99
2018-08-20T18:18:35.461Z,23.99
2018-08-20T18:21:03.704Z,24.00
2018-08-20T18:23:33.181Z,23.97
2018-08-20T18:26:01.477Z,23.94
2018-08-20T18:28:35.394Z,23.83
2018-08-20T18:31:08.757Z,23.83
2018-08-20T18:33:36.981Z,23.71
2018-08-20T18:36:10.118Z,23.70
2018-08-20T18:38:44.476Z,23.73
2018-08-20T18:41:12.778Z,23.69
2018-08-20T18:43:41.082Z,23.73
2018-08-20T18:46:09.333Z,23.70
2018-08-20T18:48:38.584Z,23.66
2018-08-20T18:51:07.715Z,23.76
2018-08-20T18:53:35.941Z,23.83
2018-08-20T18:56:10.885Z,23.81
2018-08-20T18:58:39.113Z,23.83
2018-08-20T19:01:07.909Z,23.75
2018-08-20T19:03:41.414Z,23.65
2018-08-20T19:06:09.640Z,23.77
2018-08-20T19:08:39.696Z,23.72
2018-08-20T19:11:08.257Z,23.65
2018-08-20T19:13:36.545Z,23.76
2018-08-20T19:16:37.708Z,23.73
2018-08-20T19:19:06.858Z,23.69
2018-08-20T19:21:37.989Z,23.66
2018-08-20T19:24:07.373Z,23.71
2018-08-20T19:26:35.795Z,23.55
2018-08-20T19:29:15.320Z,23.61
2018-08-20T19:31:43.551Z,23.59
2018-08-20T19:34:11.821Z,23.58
2018-08-20T19:36:40.066Z,23.55
2018-08-20T19:39:08.305Z,23.56
2018-08-20T19:41:36.545Z,23.71
2018-08-20T19:44:04.809Z,23.51
2018-08-20T19:46:38.508Z,23.58
2018-08-20T19:49:14.984Z,23.43
2018-08-20T19:51:45.258Z,23.59
2018-08-20T19:54:15.009Z,23.65
2018-08-20T19:56:43.312Z,23.63
2018-08-20T19:59:11.914Z,23.55
2018-08-20T20:01:40.303Z,23.42
2018-08-20T20:04:13.460Z,23.41
2018-08-20T20:06:42.494Z,23.37
2018-08-20T20:09:11.136Z,23.41
2018-08-20T20:11:43.899Z,23.40
2018-08-20T20:14:12.157Z,23.46
2018-08-20T20:16:45.493Z,23.53
2018-08-20T20:19:13.729Z,23.58
2018-08-20T20:21:42.009Z,23.53
2018-08-20T20:24:11.098Z,23.45
2018-08-20T20:26:39.481Z,23.48
2018-08-20T20:29:08.816Z,23.48
2018-08-20T20:31:37.881Z,23.54
2018-08-20T20:34:06.356Z,23.41
2018-08-20T20:36:34.593Z,23.39
2018-08-20T20:39:02.838Z,23.45
2018-08-20T20:41:31.054Z,23.39
2018-08-20T20:43:59.324Z,23.46
2018-08-20T20:46:27.544Z,23.40
2018-08-20T20:48:55.793Z,23.29
2018-08-20T20:51:24.074Z,23.38
2018-08-20T20:53:52.312Z,23.36
2018-08-20T20:56:20.546Z,23.47
2018-08-20T20:58:48.764Z,23.38
2018-08-20T21:01:17.086Z,23.38
2018-08-20T21:03:46.370Z,23.28
2018-08-20T21:06:14.619Z,23.14
2018-08-20T21:08:48.968Z,23.16
2018-08-20T21:11:18.385Z,23.22
2018-08-20T21:13:47.914Z,23.26
2018-08-20T21:16:18.869Z,23.22
2018-08-20T21:18:49.913Z,23.28
2018-08-20T21:21:18.847Z,23.14
2018-08-20T21:23:47.105Z,23.22
2018-08-20T21:26:15.445Z,23.19
2018-08-20T21:28:45.013Z,23.22
2018-08-20T21:31:14.228Z,23.25
2018-08-20T21:33:43.137Z,23.24
2018-08-20T21:36:12.033Z,23.23
2018-08-20T21:38:40.251Z,23.21
2018-08-20T21:41:08.497Z,23.24
2018-08-20T21:43:42.081Z,23.17
2018-08-20T21:46:10.921Z,23.05
2018-08-20T21:48:39.729Z,23.07
2018-08-20T21:51:13.325Z,23.14
2018-08-20T21:53:41.542Z,23.18
2018-08-20T21:56:11.677Z,23.19
2018-08-20T21:58:41.289Z,23.16
2018-08-20T22:01:10.952Z,23.18
2018-08-20T22:03:39.605Z,23.14
2018-08-20T22:06:07.855Z,23.13
2018-08-20T22:08:36.092Z,23.02
2018-08-20T22:11:04.323Z,23.03
2018-08-20T22:13:32.566Z,23.04
2018-08-20T22:16:15.681Z,23.05
2018-08-20T22:18:45.323Z,22.96
2018-08-20T22:21:15.741Z,22.98
2018-08-20T22:23:44.874Z,23.03
2018-08-20T22:26:18.873Z,22.98
2018-08-20T22:28:50.244Z,23.02
2018-08-20T22:31:18.576Z,22.94
2018-08-20T22:33:53.221Z,22.96
2018-08-20T22:36:21.425Z,22.94
2018-08-20T22:38:53.650Z,22.98
2018-08-20T22:41:23.049Z,22.76
2018-08-20T22:43:51.480Z,22.69
2018-08-20T22:46:20.664Z,22.71
2018-08-20T22:48:51.704Z,22.78
2018-08-20T22:51:20.520Z,22.86
2018-08-20T22:53:51.057Z,22.78
2018-08-20T22:56:23.161Z,22.74
2018-08-20T22:58:51.724Z,22.75
2018-08-20T23:01:20.098Z,22.74
2018-08-20T23:03:48.329Z,22.71
2018-08-20T23:06:16.605Z,22.71
2018-08-20T23:08:44.829Z,22.66
2018-08-20T23:11:13.107Z,22.57
2018-08-20T23:13:41.316Z,22.65
2018-08-20T23:16:09.565Z,22.65
2018-08-20T23:18:37.789Z,22.56
2018-08-20T23:21:06.073Z,22.61
2018-08-20T23:23:37.925Z,22.57
2018-08-20T23:26:10.385Z,22.69
2018-08-20T23:28:40.839Z,22.68
2018-08-20T23:31:09.084Z,22.65
2018-08-20T23:33:38.848Z,22.60
2018-08-20T23:36:07.393Z,22.67
2018-08-20T23:38:35.643Z,22.60
2018-08-20T23:41:03.953Z,22.47
2018-08-20T23:43:32.237Z,22.52
2018-08-20T23:46:00.525Z,22.45
2018-08-20T23:48:28.781Z,22.53
2018-08-20T23:51:01.154Z,22.39
2018-08-20T23:53:29.441Z,22.35
2018-08-20T23:55:57.713Z,22.36
2018-08-20T23:58:25.933Z,22.42
